Time;durP1;ratioP1;P1;durP2;ratioP2;P2;SDS_P1;SDS_P2;PMS_P1;PMS_P2;Temp;Humidity;BMP_temperature;BMP_pressure;BME280_temperature;BME280_humidity;BME280_pressure;Samples;Min_cycle;Max_cycle;Signal;HPM_P1;HPM_P2
2022/08/18 00:02:04;;;;;;;4.93;3.50;;;23.30;91.40;;;;;;5098694;28;20028;-82
2022/08/18 00:04:30;;;;;;;5.97;4.00;;;23.30;91.40;;;;;;5098324;28;20024;-81
2022/08/18 00:06:56;;;;;;;6.68;4.18;;;23.30;91.40;;;;;;5099066;28;20058;-84
2022/08/18 00:09:22;;;;;;;5.68;4.00;;;23.30;91.50;;;;;;5096566;28;20032;-84
2022/08/18 00:11:47;;;;;;;7.60;3.25;;;23.20;91.40;;;;;;5092001;28;20020;-81
2022/08/18 00:14:17;;;;;;;8.63;3.42;;;23.20;91.60;;;;;;5091192;28;20056;-82
2022/08/18 00:16:43;;;;;;;5.38;3.85;;;23.20;91.60;;;;;;5091857;28;20413;-83
2022/08/18 00:19:09;;;;;;;6.65;3.90;;;23.10;91.80;;;;;;5091995;28;20028;-84
2022/08/18 00:21:35;;;;;;;6.50;3.55;;;23.10;91.90;;;;;;5091536;28;20128;-82
2022/08/18 00:24:00;;;;;;;5.60;3.58;;;23.10;91.90;;;;;;5091761;28;20056;-84
2022/08/18 00:26:26;;;;;;;4.28;3.38;;;23.10;92.00;;;;;;5089733;28;20024;-83
2022/08/18 00:28:51;;;;;;;5.22;3.35;;;23.10;91.90;;;;;;5091582;28;20389;-82
2022/08/18 00:31:17;;;;;;;6.10;3.42;;;23.10;92.00;;;;;;5089718;28;20451;-81
2022/08/18 00:33:42;;;;;;;4.50;3.60;;;23.10;91.90;;;;;;5090225;28;20024;-81
2022/08/18 00:36:10;;;;;;;4.82;3.65;;;23.20;92.10;;;;;;5090611;28;20032;-84
2022/08/18 00:38:35;;;;;;;8.07;3.53;;;23.20;92.30;;;;;;5091066;28;20331;-84
2022/08/18 00:41:01;;;;;;;5.78;3.92;;;23.20;92.20;;;;;;5090600;28;20034;-82
2022/08/18 00:43:48;;;;;;;5.10;3.40;;;23.10;92.20;;;;;;5089730;28;20111;-82
2022/08/18 00:46:17;;;;;;;6.55;3.83;;;23.10;92.30;;;;;;5090468;28;20083;-82
2022/08/18 00:48:43;;;;;;;6.32;3.88;;;23.10;92.40;;;;;;5091191;28;20032;-82
2022/08/18 00:51:19;;;;;;;5.40;3.72;;;23.10;92.30;;;;;;5089219;28;20114;-82
2022/08/18 00:53:55;;;;;;;5.00;3.92;;;23.00;92.30;;;;;;5089533;28;20512;-84
2022/08/18 00:56:30;;;;;;;5.82;3.38;;;23.00;92.40;;;;;;5090004;28;20028;-82
2022/08/18 00:59:01;;;;;;;5.65;3.90;;;23.00;92.50;;;;;;5094075;28;20032;-82
2022/08/18 01:01:30;;;;;;;6.10;3.88;;;23.00;92.70;;;;;;5090985;28;20095;-82
2022/08/18 01:04:07;;;;;;;6.13;3.40;;;22.90;92.90;;;;;;5090907;28;20474;-82
2022/08/18 01:06:41;;;;;;;6.07;4.22;;;22.80;93.10;;;;;;5090348;28;20020;-82
2022/08/18 01:09:07;;;;;;;5.25;3.67;;;22.80;93.20;;;;;;5090872;28;20058;-81
2022/08/18 01:11:35;;;;;;;5.13;3.80;;;22.70;93.30;;;;;;5090546;28;20032;-82
2022/08/18 01:14:02;;;;;;;5.53;4.05;;;22.70;93.40;;;;;;5090448;28;20024;-81
2022/08/18 01:22:03;;;;;;;5.63;3.67;;;22.70;93.50;;;;;;5090525;28;20122;-83
2022/08/18 01:27:18;;;;;;;5.72;3.92;;;22.60;93.60;;;;;;5091950;28;20137;-82
2022/08/18 01:29:48;;;;;;;4.45;3.65;;;22.60;93.60;;;;;;5092302;28;20186;-84
2022/08/18 01:32:19;;;;;;;6.30;3.47;;;22.60;93.70;;;;;;5089050;28;20024;-84
2022/08/18 01:34:47;;;;;;;4.40;3.97;;;22.50;93.70;;;;;;5090599;28;20337;-82
2022/08/18 01:37:15;;;;;;;5.40;3.90;;;22.50;93.80;;;;;;5091037;28;20086;-82
2022/08/18 01:39:42;;;;;;;4.38;3.65;;;22.50;93.80;;;;;;5090964;28;20024;-82
2022/08/18 01:42:08;;;;;;;6.05;4.40;;;22.50;93.90;;;;;;5090064;28;20451;-83
2022/08/18 01:44:33;;;;;;;9.70;4.00;;;22.50;93.90;;;;;;5090514;28;20024;-82
2022/08/18 01:46:59;;;;;;;6.05;4.53;;;22.50;93.90;;;;;;5089826;28;20028;-82
2022/08/18 01:49:27;;;;;;;5.75;4.13;;;22.50;93.90;;;;;;5090890;28;20032;-81
2022/08/18 01:51:54;;;;;;;4.55;3.53;;;22.40;93.90;;;;;;5090488;28;20020;-82
2022/08/18 01:54:20;;;;;;;5.22;3.92;;;22.40;93.90;;;;;;5090090;28;20024;-82
2022/08/18 01:56:48;;;;;;;5.13;3.50;;;22.40;94.00;;;;;;5089742;28;20386;-81
2022/08/18 01:59:14;;;;;;;4.35;3.60;;;22.40;94.00;;;;;;5088731;28;20654;-83
2022/08/18 02:01:42;;;;;;;7.45;3.55;;;22.40;94.00;;;;;;5089583;28;20114;-81
2022/08/18 02:04:09;;;;;;;4.18;3.78;;;22.40;94.00;;;;;;5090144;28;20028;-85
2022/08/18 02:06:35;;;;;;;7.82;3.85;;;22.40;93.90;;;;;;5088310;28;20032;-84
2022/08/18 02:09:01;;;;;;;4.05;3.67;;;22.40;94.00;;;;;;5092274;28;20031;-82
2022/08/18 02:11:26;;;;;;;3.97;3.40;;;22.40;94.00;;;;;;5093774;28;20032;-83
2022/08/18 02:13:52;;;;;;;4.90;4.22;;;22.40;94.10;;;;;;5093992;28;20032;-82
2022/08/18 02:16:17;;;;;;;4.90;3.67;;;22.40;94.00;;;;;;5093519;28;20073;-82
2022/08/18 02:18:43;;;;;;;4.53;3.65;;;22.40;94.00;;;;;;5092858;28;20115;-83
2022/08/18 02:21:12;;;;;;;6.10;3.80;;;22.40;94.00;;;;;;5094274;28;20047;-82
2022/08/18 02:23:39;;;;;;;4.97;3.50;;;22.40;94.00;;;;;;5093990;28;20035;-83
2022/08/18 02:26:07;;;;;;;9.18;4.03;;;22.40;94.00;;;;;;5093428;28;20043;-81
2022/08/18 02:28:32;;;;;;;4.75;3.95;;;22.40;94.00;;;;;;5094100;28;20043;-85
2022/08/18 02:31:22;;;;;;;4.53;3.80;;;22.30;93.80;;;;;;5092869;28;20050;-82
2022/08/18 02:33:48;;;;;;;4.70;3.70;;;22.30;93.70;;;;;;5097189;28;20017;-82
2022/08/18 02:36:14;;;;;;;4.93;3.90;;;22.30;93.80;;;;;;5095464;28;20438;-82
2022/08/18 02:38:40;;;;;;;3.78;3.47;;;22.30;93.90;;;;;;5093592;28;20041;-83
2022/08/18 02:41:09;;;;;;;5.05;3.63;;;22.30;94.00;;;;;;5092653;28;20074;-82
2022/08/18 02:43:36;;;;;;;8.10;4.20;;;22.20;94.00;;;;;;5093270;28;20035;-82
2022/08/18 02:46:02;;;;;;;5.13;3.85;;;22.20;94.00;;;;;;5091348;28;20047;-83
2022/08/18 02:48:33;;;;;;;3.92;3.58;;;22.20;94.10;;;;;;5091753;28;20367;-83
2022/08/18 02:51:08;;;;;;;4.72;3.85;;;22.20;94.20;;;;;;5092800;28;20020;-83
2022/08/18 02:53:34;;;;;;;5.25;4.38;;;22.20;94.30;;;;;;5092024;28;20024;-83
2022/08/18 02:56:22;;;;;;;7.85;4.20;;;22.20;94.50;;;;;;5092692;28;20064;-82
2022/08/18 02:59:03;;;;;;;8.88;4.43;;;22.20;94.60;;;;;;5091990;28;20061;-83
2022/08/18 03:01:32;;;;;;;5.20;4.70;;;22.20;94.60;;;;;;5091398;28;20026;-83
2022/08/18 03:03:59;;;;;;;5.60;3.97;;;22.20;94.70;;;;;;5092763;28;20055;-82
2022/08/18 03:06:26;;;;;;;8.25;4.63;;;22.20;94.70;;;;;;5092439;28;20035;-85
2022/08/18 03:08:53;;;;;;;5.72;4.28;;;22.20;95.10;;;;;;5091669;28;20486;-82
2022/08/18 03:11:21;;;;;;;6.03;4.50;;;22.10;95.20;;;;;;5092261;28;20028;-84
2022/08/18 03:13:47;;;;;;;5.43;4.55;;;22.10;95.20;;;;;;5092899;28;20035;-82
2022/08/18 03:16:14;;;;;;;5.38;4.43;;;22.10;95.20;;;;;;5090892;28;20028;-83
2022/08/18 03:18:41;;;;;;;4.75;4.30;;;22.10;95.20;;;;;;5092754;28;20077;-81
2022/08/18 03:21:09;;;;;;;5.55;4.60;;;22.10;95.30;;;;;;5092375;28;20056;-81
2022/08/18 03:23:36;;;;;;;6.72;4.55;;;22.10;95.40;;;;;;5091018;28;20114;-82
2022/08/18 03:26:02;;;;;;;7.68;4.07;;;22.10;95.30;;;;;;5091782;28;20024;-85
2022/08/18 03:28:27;;;;;;;5.75;4.55;;;22.10;95.30;;;;;;5092537;28;20110;-84
2022/08/18 03:30:54;;;;;;;7.18;4.53;;;22.10;95.30;;;;;;5092612;28;20646;-82
2022/08/18 03:33:20;;;;;;;5.38;3.95;;;22.10;95.20;;;;;;5092699;28;20024;-81
2022/08/18 03:35:45;;;;;;;7.50;3.70;;;22.20;94.90;;;;;;5097117;28;20432;-80
2022/08/18 03:38:11;;;;;;;6.43;4.53;;;22.20;94.80;;;;;;5095133;28;20073;-81
2022/08/18 03:40:37;;;;;;;6.55;4.25;;;22.20;94.90;;;;;;5094572;28;20090;-80
2022/08/18 03:43:05;;;;;;;7.25;3.40;;;22.20;94.70;;;;;;5092565;28;20020;-83
2022/08/18 03:45:31;;;;;;;6.88;3.80;;;22.30;94.60;;;;;;5091368;28;20127;-82
2022/08/18 03:47:59;;;;;;;5.45;3.72;;;22.30;94.40;;;;;;5091546;28;20066;-82
2022/08/18 03:50:25;;;;;;;9.23;3.38;;;22.30;94.00;;;;;;5092155;28;20056;-82
2022/08/18 03:52:51;;;;;;;5.57;3.30;;;22.30;93.80;;;;;;5091682;28;20052;-82
2022/08/18 03:55:17;;;;;;;7.05;3.13;;;22.30;93.70;;;;;;5090628;28;20130;-83
2022/08/18 03:57:44;;;;;;;6.32;3.33;;;22.40;93.60;;;;;;5090299;28;20035;-83
2022/08/18 04:00:10;;;;;;;3.85;3.03;;;22.40;93.40;;;;;;5090161;28;20059;-84
2022/08/18 04:02:37;;;;;;;3.60;2.72;;;22.40;93.40;;;;;;5091189;28;20100;-82
2022/08/18 04:05:03;;;;;;;3.80;2.65;;;22.40;93.40;;;;;;5091388;28;20028;-82
2022/08/18 04:07:29;;;;;;;3.97;3.10;;;22.50;93.40;;;;;;5090874;28;20031;-83
2022/08/18 04:09:55;;;;;;;4.15;2.95;;;22.50;93.40;;;;;;5090233;28;20031;-83
2022/08/18 04:12:20;;;;;;;7.25;3.05;;;22.50;93.30;;;;;;5091271;28;20391;-82
2022/08/18 04:14:47;;;;;;;7.90;3.60;;;22.50;93.30;;;;;;5090364;28;20020;-82
2022/08/18 04:17:13;;;;;;;6.80;2.60;;;22.50;93.20;;;;;;5089585;28;20043;-82
2022/08/18 04:19:39;;;;;;;4.53;3.13;;;22.50;93.10;;;;;;5089770;28;20028;-82
2022/08/18 04:22:04;;;;;;;3.03;2.72;;;22.40;93.20;;;;;;5091259;28;20482;-83
2022/08/18 04:24:31;;;;;;;9.50;3.30;;;22.50;93.20;;;;;;5089677;28;20394;-82
2022/08/18 04:26:59;;;;;;;3.83;2.58;;;22.50;93.20;;;;;;5090324;28;20040;-82
2022/08/18 04:29:25;;;;;;;6.07;3.17;;;22.50;93.20;;;;;;5089715;28;20398;-81
2022/08/18 04:31:51;;;;;;;5.05;2.75;;;22.40;93.30;;;;;;5088825;28;20028;-82
2022/08/18 04:34:19;;;;;;;3.45;2.88;;;22.40;93.30;;;;;;5091191;28;20028;-82
2022/08/18 04:36:45;;;;;;;4.55;2.30;;;22.40;93.30;;;;;;5091485;28;20492;-83
2022/08/18 04:39:12;;;;;;;6.78;3.00;;;22.40;93.20;;;;;;5090963;28;20462;-83
2022/08/18 04:41:39;;;;;;;3.35;2.67;;;22.40;93.30;;;;;;5091917;28;20044;-83
2022/08/18 04:44:07;;;;;;;5.10;3.00;;;22.40;93.30;;;;;;5091673;28;20027;-80
2022/08/18 04:46:42;;;;;;;9.20;3.08;;;22.40;93.30;;;;;;5090960;28;20027;-84
2022/08/18 04:49:09;;;;;;;5.32;3.20;;;22.40;93.30;;;;;;5091749;28;20135;-82
2022/08/18 04:51:35;;;;;;;4.13;3.13;;;22.40;93.40;;;;;;5091256;28;20038;-82
2022/08/18 04:54:01;;;;;;;3.65;2.92;;;22.40;93.50;;;;;;5091738;28;20032;-82
2022/08/18 04:56:36;;;;;;;5.88;2.85;;;22.40;93.50;;;;;;5089033;28;20069;-81
2022/08/18 04:59:08;;;;;;;7.57;3.65;;;22.40;93.50;;;;;;5091356;28;20083;-83
2022/08/18 05:01:36;;;;;;;12.40;3.38;;;22.50;93.30;;;;;;5090732;28;20099;-82
2022/08/18 05:04:03;;;;;;;9.27;4.38;;;22.50;92.80;;;;;;5090792;28;20058;-83
2022/08/18 05:06:29;;;;;;;7.60;4.03;;;22.50;92.90;;;;;;5088706;28;20028;-83
2022/08/18 05:08:57;;;;;;;3.92;3.42;;;22.50;92.70;;;;;;5089369;28;20039;-82
2022/08/18 05:11:27;;;;;;;5.03;3.10;;;22.60;92.60;;;;;;5090178;28;20383;-82
2022/08/18 05:13:55;;;;;;;8.32;2.85;;;22.60;92.40;;;;;;5090685;28;20474;-83
2022/08/18 05:16:20;;;;;;;9.65;3.03;;;22.60;92.20;;;;;;5088751;28;20036;-83
2022/08/18 05:18:47;;;;;;;5.85;2.90;;;22.60;92.20;;;;;;5090893;28;20028;-83
2022/08/18 05:21:14;;;;;;;7.75;3.75;;;22.70;92.00;;;;;;5090696;28;20487;-81
2022/08/18 05:23:45;;;;;;;6.65;3.60;;;22.70;92.00;;;;;;5090900;28;20020;-82
2022/08/18 05:26:14;;;;;;;8.85;3.97;;;22.80;92.00;;;;;;5088726;28;20032;-83
2022/08/18 05:28:41;;;;;;;5.57;3.45;;;22.80;91.70;;;;;;5089200;28;20108;-82
2022/08/18 05:31:15;;;;;;;6.65;3.70;;;22.80;91.60;;;;;;5090149;28;20028;-82
2022/08/18 05:33:42;;;;;;;4.25;3.17;;;22.80;91.50;;;;;;5090595;28;20024;-82
2022/08/18 05:36:23;;;;;;;6.53;3.80;;;22.90;91.40;;;;;;5088738;28;20032;-83
2022/08/18 05:39:20;;;;;;;7.85;4.30;;;22.90;91.30;;;;;;5090968;28;20032;-82
2022/08/18 05:42:02;;;;;;;4.10;3.17;;;22.90;91.40;;;;;;5090952;28;20024;-82
2022/08/18 05:44:30;;;;;;;9.68;3.78;;;23.00;91.40;;;;;;5102690;28;20028;-81
2022/08/18 05:47:20;;;;;;;4.95;3.35;;;23.00;91.60;;;;;;5097258;28;20044;-83
2022/08/18 05:49:47;;;;;;;6.70;3.90;;;22.90;91.70;;;;;;5092762;28;20436;-83
2022/08/18 05:52:24;;;;;;;7.80;3.50;;;23.00;91.70;;;;;;5092348;28;20118;-83
2022/08/18 05:57:50;;;;;;;6.55;3.17;;;23.10;91.40;;;;;;5093975;28;20047;-84
2022/08/18 06:00:22;;;;;;;8.70;4.03;;;23.20;91.50;;;;;;5093758;28;20094;-84
2022/08/18 06:03:00;;;;;;;4.23;3.43;;;23.20;91.40;;;;;;5093695;28;20023;-84
2022/08/18 06:05:35;;;;;;;10.77;4.15;;;23.20;91.50;;;;;;5093808;28;20032;-82
2022/08/18 06:08:09;;;;;;;4.45;3.28;;;23.20;91.60;;;;;;5092600;28;20059;-84
2022/08/18 06:10:42;;;;;;;6.43;3.80;;;23.30;91.60;;;;;;5092752;28;20034;-84
2022/08/18 06:13:09;;;;;;;12.57;4.13;;;23.40;91.90;;;;;;5092714;28;20032;-82
2022/08/18 06:15:34;;;;;;;8.85;3.92;;;23.30;91.80;;;;;;5093270;28;20486;-82
2022/08/18 06:18:22;;;;;;;5.07;3.90;;;23.30;91.90;;;;;;5094142;28;20059;-82
2022/08/18 06:21:04;;;;;;;5.35;3.85;;;23.30;92.10;;;;;;5093308;28;20044;-82
2022/08/18 06:23:45;;;;;;;8.23;4.50;;;23.40;92.20;;;;;;5093765;28;20031;-83
2022/08/18 06:26:39;;;;;;;6.10;3.47;;;23.40;92.30;;;;;;5092487;28;20077;-83
2022/08/18 06:29:12;;;;;;;5.05;3.88;;;23.40;92.40;;;;;;5092234;28;20055;-83
2022/08/18 06:31:49;;;;;;;5.82;4.43;;;23.50;92.30;;;;;;5091908;28;20179;-84
2022/08/18 06:34:41;;;;;;;5.55;4.82;;;23.50;92.40;;;;;;5093763;28;20056;-84
2022/08/18 06:37:18;;;;;;;9.20;4.75;;;23.60;92.50;;;;;;5093119;28;20111;-82
2022/08/18 06:39:46;;;;;;;6.60;3.92;;;23.70;92.30;;;;;;5094079;28;20111;-82
2022/08/18 06:42:20;;;;;;;8.48;4.55;;;23.70;92.40;;;;;;5092899;28;20036;-83
2022/08/18 06:44:49;;;;;;;7.93;4.72;;;23.70;92.50;;;;;;5092773;28;20028;-83
2022/08/18 06:47:25;;;;;;;9.15;5.63;;;23.70;92.40;;;;;;5093342;28;20064;-83
2022/08/18 06:50:04;;;;;;;7.20;4.90;;;23.80;92.40;;;;;;5095549;28;20058;-83
2022/08/18 06:52:33;;;;;;;9.45;4.93;;;23.80;92.60;;;;;;5095340;28;20028;-83
2022/08/18 06:55:04;;;;;;;7.78;5.35;;;24.00;92.50;;;;;;5092679;28;20032;-84
2022/08/18 06:57:56;;;;;;;6.75;4.88;;;24.00;92.40;;;;;;5091183;28;20061;-82
2022/08/18 07:00:25;;;;;;;6.07;5.30;;;24.10;92.30;;;;;;5093079;28;20697;-82
2022/08/18 07:02:57;;;;;;;6.95;4.57;;;24.30;92.10;;;;;;5092723;28;20035;-87
2022/08/18 07:05:31;;;;;;;7.90;4.15;;;24.40;92.00;;;;;;5092933;28;20478;-84
2022/08/18 07:08:05;;;;;;;5.43;4.82;;;24.60;91.90;;;;;;5092817;28;20617;-84
2022/08/18 07:10:35;;;;;;;7.65;5.65;;;24.80;91.60;;;;;;5092902;28;20034;-83
2022/08/18 07:13:25;;;;;;;7.10;5.38;;;24.80;91.40;;;;;;5092659;28;20106;-84
2022/08/18 07:15:53;;;;;;;5.78;5.18;;;24.90;91.20;;;;;;5091096;28;20034;-85
2022/08/18 07:18:27;;;;;;;14.43;4.38;;;25.10;91.40;;;;;;5091495;28;20064;-83
2022/08/18 07:21:01;;;;;;;14.30;6.10;;;25.40;91.20;;;;;;5091272;28;20042;-87
2022/08/18 07:23:37;;;;;;;6.10;4.93;;;25.60;90.80;;;;;;5091563;28;20111;-84
2022/08/18 07:26:14;;;;;;;7.72;5.63;;;25.60;90.60;;;;;;5090983;28;20501;-84
2022/08/18 07:28:49;;;;;;;8.90;5.65;;;25.80;90.70;;;;;;5091554;28;20034;-83
2022/08/18 07:31:40;;;;;;;12.02;5.90;;;25.80;90.70;;;;;;5092098;28;20512;-84
2022/08/18 07:34:17;;;;;;;9.70;6.45;;;25.60;90.80;;;;;;5079740;28;20407;-87
2022/08/18 07:36:59;;;;;;;9.73;7.20;;;25.60;91.00;;;;;;5092163;28;20065;-84
2022/08/18 07:39:31;;;;;;;13.15;7.28;;;25.70;91.10;;;;;;5091109;28;20394;-84
2022/08/18 07:42:23;;;;;;;12.35;7.95;;;25.80;90.80;;;;;;5092428;28;20036;-84
2022/08/18 07:44:59;;;;;;;9.75;8.30;;;25.70;91.10;;;;;;5091705;28;20041;-84
2022/08/18 07:47:37;;;;;;;16.23;8.90;;;25.60;91.10;;;;;;5092218;28;20021;-86
2022/08/18 07:50:05;;;;;;;16.40;9.10;;;25.60;91.00;;;;;;5091838;28;20031;-87
2022/08/18 07:52:38;;;;;;;9.55;8.45;;;25.60;91.10;;;;;;5091131;28;20028;-84
2022/08/18 07:55:21;;;;;;;13.95;9.10;;;25.60;91.20;;;;;;5091693;28;20115;-86
2022/08/18 07:58:11;;;;;;;13.50;8.90;;;25.60;91.60;;;;;;5091731;28;20035;-84
2022/08/18 08:00:55;;;;;;;11.55;9.43;;;25.70;91.00;;;;;;5093196;28;20149;-84
2022/08/18 08:03:50;;;;;;;9.93;8.05;;;25.70;90.90;;;;;;5092318;28;20515;-83
2022/08/18 08:06:38;;;;;;;12.07;8.10;;;25.70;91.30;;;;;;5091401;28;20393;-85
2022/08/18 08:09:21;;;;;;;14.07;8.07;;;25.90;91.20;;;;;;5092265;28;20027;-86
2022/08/18 08:12:16;;;;;;;12.98;7.95;;;25.80;91.50;;;;;;5092240;28;20063;-84
2022/08/18 08:14:45;;;;;;;12.00;8.43;;;25.90;91.30;;;;;;5091434;28;20032;-84
2022/08/18 08:17:12;;;;;;;10.50;7.28;;;26.00;90.80;;;;;;5097211;28;20028;-82
2022/08/18 08:19:52;;;;;;;9.15;7.35;;;26.10;91.30;;;;;;5099116;28;20024;-83
2022/08/18 08:22:28;;;;;;;12.65;8.40;;;26.20;91.10;;;;;;5099110;28;20044;-85
2022/08/18 08:25:25;;;;;;;10.20;8.35;;;26.30;90.90;;;;;;5097753;28;20119;-86
2022/08/18 08:28:25;;;;;;;14.15;8.73;;;26.30;90.60;;;;;;5084708;28;20050;-83
2022/08/18 08:31:09;;;;;;;11.38;8.85;;;26.20;90.90;;;;;;5095724;28;20028;-85
2022/08/18 08:33:52;;;;;;;11.70;8.90;;;26.00;90.70;;;;;;5092286;28;20020;-84
2022/08/18 08:36:26;;;;;;;11.00;9.20;;;26.00;90.90;;;;;;5089994;28;20028;-85
2022/08/18 08:38:56;;;;;;;12.50;9.38;;;26.00;90.90;;;;;;5090427;28;20058;-84
2022/08/18 08:41:32;;;;;;;9.80;8.48;;;26.00;91.00;;;;;;5091484;28;20028;-83
2022/08/18 08:44:09;;;;;;;12.45;9.13;;;26.20;90.90;;;;;;5091739;28;20069;-83
2022/08/18 08:46:44;;;;;;;10.75;8.15;;;26.30;90.70;;;;;;5089738;28;20425;-83
2022/08/18 08:49:32;;;;;;;12.43;8.95;;;26.40;90.50;;;;;;5090668;28;20039;-84
2022/08/18 08:52:06;;;;;;;16.27;9.30;;;26.40;90.40;;;;;;5092000;28;20040;-84
2022/08/18 08:54:52;;;;;;;10.98;8.90;;;26.40;90.30;;;;;;5101807;28;20046;-86
2022/08/18 08:57:20;;;;;;;9.70;8.02;;;26.50;90.10;;;;;;5096954;28;20028;-83
2022/08/18 08:59:49;;;;;;;9.38;7.35;;;26.50;90.50;;;;;;5091086;28;20028;-84
2022/08/18 09:02:35;;;;;;;8.50;7.50;;;26.60;90.10;;;;;;5090967;28;20039;-85
2022/08/18 09:05:11;;;;;;;11.23;9.90;;;26.60;90.10;;;;;;5089638;28;20020;-86
2022/08/18 09:07:49;;;;;;;8.88;7.93;;;26.70;89.80;;;;;;5089493;28;20119;-85
2022/08/18 09:10:23;;;;;;;13.35;8.27;;;26.70;90.20;;;;;;5089649;28;20042;-84
2022/08/18 09:13:09;;;;;;;8.85;7.82;;;26.80;90.30;;;;;;5091316;28;20028;-86
2022/08/18 09:15:53;;;;;;;10.85;8.10;;;26.90;90.10;;;;;;5088926;28;20043;-85
2022/08/18 09:18:45;;;;;;;14.52;9.15;;;27.00;90.00;;;;;;5089468;28;20028;-83
2022/08/18 09:21:36;;;;;;;13.43;9.90;;;27.10;89.60;;;;;;5090401;28;20063;-85
2022/08/18 09:24:21;;;;;;;11.05;8.55;;;27.10;89.30;;;;;;5090628;28;20028;-84
2022/08/18 09:27:21;;;;;;;14.00;9.45;;;27.20;89.20;;;;;;5090553;28;20032;-86
2022/08/18 09:29:54;;;;;;;14.65;10.05;;;27.20;88.80;;;;;;5091162;28;20042;-83
2022/08/18 09:32:19;;;;;;;19.27;9.77;;;27.10;88.70;;;;;;5088999;28;20038;-86
2022/08/18 09:35:11;;;;;;;13.43;9.35;;;27.10;89.00;;;;;;5091281;28;20027;-85
2022/08/18 09:44:09;;;;;;;15.05;9.88;;;27.30;89.20;;;;;;5090734;28;20043;-86
2022/08/18 09:46:47;;;;;;;10.10;8.43;;;27.30;88.50;;;;;;5088956;28;20631;-86
2022/08/18 09:49:37;;;;;;;12.07;9.75;;;27.40;89.20;;;;;;5090830;28;20036;-86
2022/08/18 09:52:21;;;;;;;12.88;9.43;;;27.50;88.00;;;;;;5089365;28;20063;-86
2022/08/18 09:55:23;;;;;;;14.95;9.73;;;27.60;87.80;;;;;;5091102;28;20103;-84
2022/08/18 09:58:13;;;;;;;11.05;7.68;;;27.60;87.40;;;;;;5089482;28;20040;-85
2022/08/18 10:00:39;;;;;;;8.82;7.05;;;27.80;88.50;;;;;;5089649;28;20024;-85
2022/08/18 10:03:12;;;;;;;15.15;10.50;;;27.90;87.30;;;;;;5089237;28;20028;-84
2022/08/18 10:05:38;;;;;;;11.70;8.48;;;28.00;86.70;;;;;;5089898;28;20097;-85
2022/08/18 10:08:06;;;;;;;10.40;7.88;;;28.10;86.20;;;;;;5089884;28;20063;-85
2022/08/18 10:10:48;;;;;;;11.48;7.32;;;28.20;86.20;;;;;;5089669;28;20081;-88
2022/08/18 10:13:43;;;;;;;10.63;7.57;;;28.20;86.40;;;;;;5091796;28;20458;-84
2022/08/18 10:16:11;;;;;;;13.35;8.45;;;28.30;85.40;;;;;;5090989;28;20025;-84
2022/08/18 10:18:49;;;;;;;13.43;8.90;;;28.40;84.90;;;;;;5090743;28;20020;-84
2022/08/18 10:21:27;;;;;;;15.02;7.90;;;28.30;85.00;;;;;;5095249;28;20139;-84
2022/08/18 10:24:04;;;;;;;14.02;8.57;;;28.10;85.50;;;;;;5091300;28;20108;-84
2022/08/18 10:26:30;;;;;;;8.20;6.47;;;28.00;85.20;;;;;;5088909;28;20100;-85
2022/08/18 10:29:04;;;;;;;7.80;7.00;;;28.00;85.80;;;;;;5090019;28;20078;-84
2022/08/18 10:31:50;;;;;;;12.30;7.63;;;28.10;87.20;;;;;;5094487;28;20107;-86
2022/08/18 10:34:47;;;;;;;11.45;7.90;;;28.20;86.30;;;;;;5093983;28;20119;-86
2022/08/18 10:37:25;;;;;;;10.93;7.15;;;28.20;84.70;;;;;;5097409;28;20031;-86
2022/08/18 10:40:02;;;;;;;8.57;6.63;;;28.30;85.80;;;;;;5095712;28;20035;-86
2022/08/18 10:42:32;;;;;;;10.02;6.30;;;28.40;85.90;;;;;;5097644;28;20054;-85
2022/08/18 10:45:29;;;;;;;8.32;7.43;;;28.50;85.60;;;;;;5096977;28;20020;-83
2022/08/18 10:48:30;;;;;;;8.20;7.35;;;28.60;85.80;;;;;;5080777;28;20036;-82
2022/08/18 10:51:02;;;;;;;10.02;7.50;;;28.70;84.70;;;;;;5098215;28;20031;-85
2022/08/18 10:53:51;;;;;;;11.05;7.45;;;28.70;83.40;;;;;;5095393;28;20028;-87
2022/08/18 10:56:44;;;;;;;15.80;7.10;;;28.70;84.10;;;;;;5094384;28;20035;-85
2022/08/18 10:59:27;;;;;;;9.90;8.40;;;28.70;84.90;;;;;;5094873;28;20020;-84
2022/08/18 11:02:38;;;;;;;11.55;8.55;;;28.70;84.30;;;;;;5092649;28;20063;-84
2022/08/18 11:05:07;;;;;;;11.13;8.05;;;28.70;84.00;;;;;;5059483;28;20058;-87
2022/08/18 11:07:34;;;;;;;7.82;6.65;;;28.60;84.40;;;;;;5096359;28;20032;-85
2022/08/18 11:10:13;;;;;;;13.55;7.95;;;28.50;84.70;;;;;;5097455;28;20031;-85
2022/08/18 11:12:58;;;;;;;11.23;8.40;;;28.40;85.20;;;;;;5092872;28;20036;-84
2022/08/18 11:15:35;;;;;;;10.77;7.50;;;28.20;84.80;;;;;;5092454;28;20031;-88
2022/08/18 11:18:30;;;;;;;10.77;7.85;;;28.20;85.50;;;;;;5092718;28;20371;-88
2022/08/18 11:21:41;;;;;;;8.88;7.18;;;28.10;84.80;;;;;;5092634;28;20398;-86
2022/08/18 11:24:19;;;;;;;8.77;6.80;;;28.00;85.30;;;;;;5090152;28;20782;-86
2022/08/18 11:26:57;;;;;;;10.65;7.60;;;27.90;85.80;;;;;;5093475;28;20106;-85
2022/08/18 11:29:30;;;;;;;11.85;6.88;;;27.60;86.20;;;;;;5094099;28;20039;-86
2022/08/18 11:32:15;;;;;;;13.10;8.23;;;27.60;86.60;;;;;;5095337;28;20028;-86
2022/08/18 11:34:51;;;;;;;9.50;6.63;;;27.60;85.80;;;;;;5094363;28;20047;-87
2022/08/18 11:37:29;;;;;;;13.45;6.65;;;27.70;85.70;;;;;;5092698;28;20032;-85
2022/08/18 11:39:57;;;;;;;15.68;7.97;;;27.50;86.00;;;;;;5095185;28;20031;-87
2022/08/18 11:42:32;;;;;;;13.82;6.75;;;27.40;86.20;;;;;;5096182;28;20027;-86
2022/08/18 11:45:16;;;;;;;6.45;5.25;;;27.40;86.20;;;;;;5097576;28;20053;-86
2022/08/18 11:48:15;;;;;;;9.95;6.40;;;27.40;86.30;;;;;;5097926;28;20054;-85
2022/08/18 11:51:00;;;;;;;8.80;6.18;;;27.50;84.70;;;;;;5096437;28;20431;-84
2022/08/18 11:53:32;;;;;;;12.05;5.47;;;27.40;84.50;;;;;;5097078;28;20020;-86
2022/08/18 11:56:12;;;;;;;7.50;5.00;;;27.50;84.80;;;;;;5097926;28;20478;-86
2022/08/18 11:58:46;;;;;;;5.40;4.82;;;27.40;84.50;;;;;;5096498;28;20289;-85
2022/08/18 12:01:31;;;;;;;8.07;6.57;;;27.50;85.70;;;;;;5097211;28;20048;-86
2022/08/18 12:04:27;;;;;;;8.82;6.00;;;27.50;84.40;;;;;;5098574;28;20034;-86
2022/08/18 12:07:16;;;;;;;14.48;6.25;;;27.40;84.30;;;;;;5099867;28;20478;-85
2022/08/18 12:10:07;;;;;;;6.03;5.18;;;27.40;84.80;;;;;;5100167;28;20046;-83
2022/08/18 12:12:32;;;;;;;20.00;6.45;;;27.50;84.40;;;;;;5097479;28;20032;-85
2022/08/18 12:14:58;;;;;;;9.43;6.68;;;27.40;84.80;;;;;;5100231;28;20028;-83
2022/08/18 12:17:24;;;;;;;7.90;6.57;;;27.30;86.00;;;;;;5098340;28;20028;-84
2022/08/18 12:19:51;;;;;;;7.07;6.38;;;27.30;85.10;;;;;;5094536;28;20035;-87
2022/08/18 12:22:22;;;;;;;9.63;6.55;;;27.30;85.30;;;;;;5100267;28;20032;-85
2022/08/18 12:24:48;;;;;;;10.30;5.47;;;27.30;85.40;;;;;;5101975;28;20031;-85
2022/08/18 12:27:17;;;;;;;7.40;5.95;;;27.40;85.70;;;;;;5100715;28;20040;-84
2022/08/18 12:29:43;;;;;;;9.13;5.97;;;27.50;85.40;;;;;;5101824;28;20038;-84
2022/08/18 12:32:09;;;;;;;10.50;6.03;;;27.50;84.90;;;;;;5099352;28;20051;-85
2022/08/18 12:34:35;;;;;;;9.35;6.72;;;27.50;84.30;;;;;;5097372;28;20031;-85
2022/08/18 12:37:01;;;;;;;8.20;5.85;;;27.50;83.50;;;;;;5096362;28;20028;-86
2022/08/18 12:39:27;;;;;;;8.45;5.25;;;27.60;83.70;;;;;;5096915;28;20032;-84
2022/08/18 12:41:54;;;;;;;8.10;5.53;;;27.40;83.50;;;;;;5095446;28;20020;-84
2022/08/18 12:44:19;;;;;;;6.18;5.20;;;27.50;83.90;;;;;;5094354;28;20107;-87
2022/08/18 12:46:45;;;;;;;8.95;4.75;;;27.50;83.70;;;;;;5098401;28;20081;-86
2022/08/18 12:49:18;;;;;;;6.25;5.38;;;27.60;83.80;;;;;;5101020;28;20553;-86
2022/08/18 12:51:45;;;;;;;8.00;5.03;;;27.60;82.60;;;;;;5097840;28;20574;-83
2022/08/18 12:54:11;;;;;;;5.50;4.20;;;27.60;83.00;;;;;;5097636;28;20115;-85
2022/08/18 12:56:36;;;;;;;5.22;4.50;;;27.60;82.90;;;;;;5093715;28;20060;-85
2022/08/18 12:59:04;;;;;;;9.75;5.05;;;27.70;82.90;;;;;;5091731;28;20056;-87
2022/08/18 13:01:30;;;;;;;10.57;5.75;;;27.70;84.90;;;;;;5089877;28;20074;-85
2022/08/18 13:03:56;;;;;;;8.18;5.07;;;27.60;86.30;;;;;;5091282;28;20643;-83
2022/08/18 13:06:22;;;;;;;10.43;6.30;;;27.50;86.60;;;;;;5091161;28;20020;-84
2022/08/18 13:08:49;;;;;;;8.95;7.45;;;27.40;87.80;;;;;;5091262;28;20083;-84
2022/08/18 13:11:16;;;;;;;8.80;6.10;;;27.20;87.40;;;;;;5090753;28;20032;-84
2022/08/18 13:13:43;;;;;;;10.48;7.35;;;27.10;88.70;;;;;;5096778;28;20482;-81
2022/08/18 13:16:09;;;;;;;12.90;7.03;;;27.00;89.30;;;;;;5096636;28;20119;-85
2022/08/18 13:18:35;;;;;;;8.23;6.93;;;26.80;89.90;;;;;;5092989;28;20449;-85
2022/08/18 13:21:02;;;;;;;9.48;8.05;;;26.70;89.40;;;;;;5091905;28;20040;-84
2022/08/18 13:23:29;;;;;;;11.10;7.68;;;26.60;90.10;;;;;;5090293;28;20032;-84
2022/08/18 13:25:56;;;;;;;13.00;6.80;;;26.40;90.70;;;;;;5089171;28;20063;-85
2022/08/18 13:28:22;;;;;;;10.98;7.25;;;26.30;90.90;;;;;;5091228;28;20051;-88
2022/08/18 13:30:49;;;;;;;9.95;7.30;;;26.20;91.10;;;;;;5090609;28;20020;-84
2022/08/18 13:33:17;;;;;;;10.10;6.70;;;26.10;91.80;;;;;;5090566;28;20024;-86